Terminal Aerodrome Forecast
Issued by NWS Twin Cities, MN

Home | Current Version | Previous Version | Graphics & Text | Print | Product List | Glossary On
Versions: 1 2 3 4 5 6 7 8 9 10 11 12 13 14 15 16 17 18 19 20
000
FTUS43 KMPX 151724
TAFSTC
TAF
KSTC 151724Z 1518/1618 18007KT P6SM SKC
     FM160900 19003KT P6SM SCT250
     FM161500 18003KT 6SM BR SCT020=

USA.gov is the U.S. government's official web portal to all federal, state and local government web resources and services.